Time,TemperatureF,DewpointF,PressureIn,WindDirection,WindDirectionDegrees,WindSpeedMPH,WindSpeedGustMPH,Humidity,HourlyPrecipIn,Conditions,Clouds,dailyrainin,SoftwareType,DateUTC
2013-12-09 00:12:00,76.0,68.0,30.16,SSE,149,9.0,16.0,75,-99.99,,,-99.99,,2013-12-09 05:12:00,
2013-12-09 00:53:00,76.0,68.0,30.15,SSE,153,9.0,17.0,76,-99.99,,,-99.99,,2013-12-09 05:53:00,
2013-12-09 01:12:00,76.0,68.0,30.15,SSE,159,9.0,14.0,76,-99.99,,,-99.99,,2013-12-09 06:12:00,
2013-12-09 01:42:00,76.0,68.0,30.15,SSE,152,10.0,17.0,75,-99.99,,,-99.99,,2013-12-09 06:42:00,
2013-12-09 01:52:00,76.0,68.0,30.15,SSE,155,10.0,16.0,75,-99.99,,,-99.99,,2013-12-09 06:52:00,
2013-12-09 02:11:00,76.0,68.0,30.15,SSE,151,10.0,16.0,75,-99.99,,,-99.99,,2013-12-09 07:11:00,
2013-12-09 02:22:00,76.0,68.0,30.14,SSE,150,9.0,16.0,75,-99.99,,,-99.99,,2013-12-09 07:22:00,
2013-12-09 02:42:00,76.0,68.0,30.14,SSE,151,10.0,16.0,76,-99.99,,,-99.99,,2013-12-09 07:42:00,
2013-12-09 02:52:00,76.0,68.0,30.14,SSE,153,9.0,16.0,76,-99.99,,,-99.99,,2013-12-09 07:52:00,
2013-12-09 03:12:00,76.0,68.0,30.14,SSE,153,10.0,17.0,75,-99.99,,,-99.99,,2013-12-09 08:12:00,
2013-12-09 03:22:00,76.0,68.0,30.14,SSE,152,10.0,17.0,76,-99.99,,,-99.99,,2013-12-09 08:22:00,
2013-12-09 03:32:00,76.0,68.0,30.14,SSE,152,10.0,17.0,76,-99.99,,,-99.99,,2013-12-09 08:32:00,
2013-12-09 03:52:00,76.0,68.0,30.14,SSE,155,9.0,15.0,76,-99.99,,,-99.99,,2013-12-09 08:52:00,
2013-12-09 04:12:00,76.0,68.0,30.14,SSE,157,9.0,16.0,77,-99.99,,,-99.99,,2013-12-09 09:12:00,
2013-12-09 04:22:00,76.0,69.0,30.14,SSE,153,9.0,16.0,78,-99.99,,,-99.99,,2013-12-09 09:22:00,
2013-12-09 04:43:00,76.0,68.0,30.14,SSE,155,9.0,15.0,77,-99.99,,,-99.99,,2013-12-09 09:43:00,
2013-12-09 04:54:00,76.0,69.0,30.15,SSE,155,8.0,13.0,77,-99.99,,,-99.99,,2013-12-09 09:54:00,
2013-12-09 05:13:00,76.0,68.0,30.15,SSE,158,8.0,13.0,77,-99.99,,,-99.99,,2013-12-09 10:13:00,
2013-12-09 05:23:00,76.0,69.0,30.15,SSE,156,7.0,11.0,77,-99.99,,,-99.99,,2013-12-09 10:23:00,
2013-12-09 05:43:00,75.0,68.0,30.15,SSE,158,7.0,13.0,77,-99.99,,,-99.99,,2013-12-09 10:43:00,
2013-12-09 05:53:00,76.0,68.0,30.15,SSE,157,10.0,16.0,76,-99.99,,,-99.99,,2013-12-09 10:53:00,
2013-12-09 06:12:00,76.0,67.0,30.15,SSE,155,10.0,16.0,74,-99.99,,,-99.99,,2013-12-09 11:12:00,
2013-12-09 06:53:00,76.0,67.0,30.16,SSE,151,9.0,15.0,73,-99.99,,,-99.99,,2013-12-09 11:53:00,
2013-12-09 07:12:00,76.0,67.0,30.16,SSE,152,8.0,13.0,73,-99.99,,,-99.99,,2013-12-09 12:12:00,
2013-12-09 07:52:00,76.0,66.0,30.17,SSE,157,9.0,14.0,72,-99.99,,,-99.99,,2013-12-09 12:52:00,
2013-12-09 08:12:00,76.0,67.0,30.18,SSE,157,8.0,13.0,72,-99.99,,,-99.99,,2013-12-09 13:12:00,
2013-12-09 08:22:00,76.0,67.0,30.18,SSE,153,8.0,13.0,73,-99.99,,,-99.99,,2013-12-09 13:22:00,
2013-12-09 08:32:00,76.0,67.0,30.18,SSE,153,8.0,13.0,73,-99.99,,,-99.99,,2013-12-09 13:32:00,
2013-12-09 08:52:00,76.0,67.0,30.18,SSE,151,9.0,14.0,73,-99.99,,,-99.99,,2013-12-09 13:52:00,
2013-12-09 09:12:00,77.0,67.0,30.19,SSE,154,8.0,14.0,72,-99.99,,,-99.99,,2013-12-09 14:12:00,
2013-12-09 09:22:00,78.0,67.0,30.19,SSE,148,10.0,15.0,68,-99.99,,,-99.99,,2013-12-09 14:22:00,
2013-12-09 09:32:00,78.0,67.0,30.19,SSE,148,10.0,15.0,68,-99.99,,,-99.99,,2013-12-09 14:32:00,
2013-12-09 09:52:00,79.0,67.0,30.19,SE,144,11.0,17.0,66,-99.99,,,-99.99,,2013-12-09 14:52:00,
2013-12-09 10:12:00,79.0,67.0,30.20,SSE,147,10.0,18.0,66,-99.99,,,-99.99,,2013-12-09 15:12:00,
2013-12-09 10:22:00,79.0,67.0,30.19,SE,144,12.0,17.0,66,-99.99,,,-99.99,,2013-12-09 15:22:00,
2013-12-09 10:43:00,79.0,66.0,30.20,SSE,149,12.0,19.0,64,-99.99,,,-99.99,,2013-12-09 15:43:00,
2013-12-09 10:53:00,79.0,66.0,30.19,SSE,150,12.0,19.0,63,-99.99,,,-99.99,,2013-12-09 15:53:00,
2013-12-09 11:13:00,79.0,66.0,30.19,SE,145,12.0,18.0,63,-99.99,,,-99.99,,2013-12-09 16:13:00,
2013-12-09 11:23:00,79.0,67.0,30.19,SSE,148,11.0,18.0,64,-99.99,,,-99.99,,2013-12-09 16:23:00,
2013-12-09 11:43:00,80.0,67.0,30.19,SSE,147,12.0,19.0,64,-99.99,,,-99.99,,2013-12-09 16:43:00,
2013-12-09 11:53:00,80.0,66.0,30.18,SE,144,11.0,18.0,62,-99.99,,,-99.99,,2013-12-09 16:53:00,
2013-12-09 12:12:00,80.0,66.0,30.18,SSE,152,12.0,18.0,61,-99.99,,,-99.99,,2013-12-09 17:12:00,
2013-12-09 12:53:00,80.0,67.0,30.16,SSE,163,10.0,19.0,63,-99.99,,,-99.99,,2013-12-09 17:53:00,
2013-12-09 13:12:00,80.0,66.0,30.15,SSE,157,13.0,20.0,60,-99.99,,,-99.99,,2013-12-09 18:12:00,
2013-12-09 13:53:00,80.0,66.0,30.13,SSE,159,11.0,16.0,61,-99.99,,,-99.99,,2013-12-09 18:53:00,
2013-12-09 14:12:00,80.0,67.0,30.13,SSE,157,12.0,19.0,64,-99.99,,,-99.99,,2013-12-09 19:12:00,
2013-12-09 14:22:00,80.0,67.0,30.12,SSE,155,12.0,18.0,63,-99.99,,,-99.99,,2013-12-09 19:22:00,
2013-12-09 14:32:00,80.0,67.0,30.12,SSE,155,12.0,18.0,63,-99.99,,,-99.99,,2013-12-09 19:32:00,
2013-12-09 14:53:00,79.0,66.0,30.11,SSE,163,12.0,19.0,64,-99.99,,,-99.99,,2013-12-09 19:53:00,
2013-12-09 15:11:00,79.0,67.0,30.11,SSE,163,12.0,18.0,65,-99.99,,,-99.99,,2013-12-09 20:11:00,
2013-12-09 15:53:00,79.0,66.0,30.11,SSE,157,10.0,16.0,64,-99.99,,,-99.99,,2013-12-09 20:53:00,
2013-12-09 16:12:00,79.0,66.0,30.11,SSE,154,10.0,15.0,64,-99.99,,,-99.99,,2013-12-09 21:12:00,
2013-12-09 16:44:00,78.0,64.0,30.11,SE,146,9.0,14.0,61,-99.99,,,-99.99,,2013-12-09 21:44:00,
2013-12-09 16:53:00,78.0,64.0,30.11,SSE,151,10.0,14.0,60,-99.99,,,-99.99,,2013-12-09 21:53:00,
2013-12-09 17:13:00,78.0,63.0,30.11,SSE,150,9.0,13.0,59,-99.99,,,-99.99,,2013-12-09 22:13:00,
2013-12-09 17:23:00,78.0,62.0,30.11,SSE,149,8.0,13.0,56,-99.99,,,-99.99,,2013-12-09 22:23:00,
2013-12-09 17:43:00,77.0,63.0,30.11,SSE,153,7.0,11.0,59,-99.99,,,-99.99,,2013-12-09 22:43:00,
2013-12-09 17:53:00,77.0,63.0,30.11,SSE,158,6.0,10.0,62,-99.99,,,-99.99,,2013-12-09 22:53:00,
2013-12-09 18:12:00,76.0,64.0,30.12,SSE,160,5.0,9.0,65,-99.99,,,-99.99,,2013-12-09 23:12:00,
2013-12-09 18:22:00,75.0,65.0,30.12,SSE,157,4.0,7.0,68,-99.99,,,-99.99,,2013-12-09 23:22:00,
2013-12-09 18:33:00,75.0,65.0,30.12,SSE,157,4.0,7.0,68,-99.99,,,-99.99,,2013-12-09 23:33:00,
2013-12-09 18:53:00,75.0,64.0,30.13,SSE,153,3.0,5.0,68,-99.99,,,-99.99,,2013-12-09 23:53:00,
2013-12-09 19:12:00,74.0,64.0,30.13,SSE,147,3.0,5.0,69,-99.99,,,-99.99,,2013-12-10 00:12:00,
2013-12-09 19:53:00,75.0,65.0,30.14,SSE,154,4.0,8.0,70,-99.99,,,-99.99,,2013-12-10 00:53:00,
2013-12-09 20:11:00,75.0,64.0,30.15,SSE,156,4.0,7.0,69,-99.99,,,-99.99,,2013-12-10 01:11:00,
2013-12-09 20:42:00,74.0,64.0,30.15,SSE,156,3.0,6.0,70,-99.99,,,-99.99,,2013-12-10 01:42:00,
2013-12-09 20:52:00,75.0,64.0,30.15,SSE,156,4.0,7.0,68,-99.99,,,-99.99,,2013-12-10 01:52:00,
2013-12-09 21:12:00,75.0,64.0,30.15,SSE,156,4.0,6.0,69,-99.99,,,-99.99,,2013-12-10 02:12:00,
2013-12-09 21:52:00,74.0,64.0,30.16,SSE,162,2.0,6.0,71,-99.99,,,-99.99,,2013-12-10 02:52:00,
2013-12-09 22:12:00,75.0,64.0,30.16,SSE,161,4.0,7.0,69,-99.99,,,-99.99,,2013-12-10 03:12:00,
2013-12-09 22:22:00,75.0,65.0,30.15,SSE,160,4.0,7.0,70,-99.99,,,-99.99,,2013-12-10 03:22:00,
2013-12-09 22:33:00,75.0,65.0,30.15,SSE,160,4.0,7.0,70,-99.99,,,-99.99,,2013-12-10 03:33:00,
2013-12-09 22:54:00,75.0,66.0,30.15,SSE,168,5.0,8.0,73,-99.99,,,-99.99,,2013-12-10 03:54:00,
2013-12-09 23:13:00,75.0,67.0,30.15,SSE,162,4.0,6.0,74,-99.99,,,-99.99,,2013-12-10 04:13:00,
2013-12-09 23:53:00,75.0,67.0,30.14,SSE,163,3.0,5.0,75,-99.99,,,-99.99,,2013-12-10 04:53:00,